createdAt,value
2019-05-10T00:04:00.000Z,13.0
2019-05-10T00:09:00.000Z,13.0
2019-05-10T00:14:00.000Z,13.0
2019-05-10T00:19:00.000Z,13.0
2019-05-10T00:24:00.000Z,13.0
2019-05-10T00:30:00.000Z,12.9
2019-05-10T00:35:00.000Z,12.9
2019-05-10T00:40:00.000Z,12.9
2019-05-10T00:45:00.000Z,12.8
2019-05-10T00:50:00.000Z,12.8
2019-05-10T00:55:00.000Z,12.8
2019-05-10T01:00:00.000Z,12.7
2019-05-10T01:05:00.000Z,12.7
2019-05-10T01:10:00.000Z,12.6
2019-05-10T01:15:00.000Z,12.6
2019-05-10T01:20:00.000Z,12.5
2019-05-10T01:25:00.000Z,12.5
2019-05-10T01:30:00.000Z,12.4
2019-05-10T01:35:00.000Z,12.4
2019-05-10T01:40:00.000Z,12.4
2019-05-10T01:45:00.000Z,12.3
2019-05-10T01:50:00.000Z,12.3
2019-05-10T01:55:00.000Z,12.3
2019-05-10T02:00:00.000Z,12.3
2019-05-10T02:05:00.000Z,12.4
2019-05-10T02:10:00.000Z,12.4
2019-05-10T02:15:00.000Z,12.4
2019-05-10T02:20:00.000Z,12.4
2019-05-10T02:25:00.000Z,12.4
2019-05-10T02:31:00.000Z,12.4
2019-05-10T02:36:00.000Z,12.4
2019-05-10T02:41:00.000Z,12.4
2019-05-10T02:46:00.000Z,12.4
2019-05-10T02:51:00.000Z,12.5
2019-05-10T02:56:00.000Z,12.5
2019-05-10T03:01:00.000Z,12.6
2019-05-10T03:06:00.000Z,12.7
2019-05-10T03:11:00.000Z,12.7
2019-05-10T03:16:00.000Z,12.8
2019-05-10T03:21:00.000Z,12.8
2019-05-10T03:26:00.000Z,12.9
2019-05-10T03:31:00.000Z,12.9
2019-05-10T03:36:00.000Z,12.9
2019-05-10T03:41:00.000Z,12.9
2019-05-10T03:46:00.000Z,12.9
2019-05-10T03:51:00.000Z,13.0
2019-05-10T03:56:00.000Z,13.0
2019-05-10T04:02:00.000Z,13.1
2019-05-10T04:07:00.000Z,13.1
2019-05-10T04:12:00.000Z,13.2
2019-05-10T04:17:00.000Z,13.2
2019-05-10T04:22:00.000Z,13.3
2019-05-10T04:27:00.000Z,13.3
2019-05-10T04:32:00.000Z,13.4
2019-05-10T04:37:00.000Z,13.4
2019-05-10T04:42:00.000Z,13.4
2019-05-10T04:47:00.000Z,13.3
2019-05-10T04:52:00.000Z,13.3
2019-05-10T04:57:00.000Z,13.3
2019-05-10T05:02:00.000Z,13.3
2019-05-10T05:07:00.000Z,13.3
2019-05-10T05:12:00.000Z,13.3
2019-05-10T05:17:00.000Z,13.3
2019-05-10T05:22:00.000Z,13.4
2019-05-10T05:27:00.000Z,13.4
2019-05-10T05:33:00.000Z,13.6
2019-05-10T05:38:00.000Z,13.6
2019-05-10T05:43:00.000Z,13.8
2019-05-10T05:48:00.000Z,13.9
2019-05-10T05:53:00.000Z,14.0
2019-05-10T05:58:00.000Z,14.1
2019-05-10T06:03:00.000Z,14.2
2019-05-10T06:08:00.000Z,14.4
2019-05-10T06:13:00.000Z,14.5
2019-05-10T06:18:00.000Z,14.7
2019-05-10T06:23:00.000Z,14.8
2019-05-10T06:28:00.000Z,14.8
2019-05-10T06:34:00.000Z,14.8
2019-05-10T06:39:00.000Z,14.8
2019-05-10T06:44:00.000Z,15.0
2019-05-10T06:49:00.000Z,15.2
2019-05-10T06:54:00.000Z,15.2
2019-05-10T06:59:00.000Z,15.3
2019-05-10T07:04:00.000Z,15.3
2019-05-10T07:09:00.000Z,15.4
2019-05-10T07:14:00.000Z,15.7
2019-05-10T07:19:00.000Z,16.0
2019-05-10T07:24:00.000Z,16.3
2019-05-10T07:29:00.000Z,16.9
2019-05-10T07:34:00.000Z,17.4
2019-05-10T07:40:00.000Z,17.8
2019-05-10T07:45:00.000Z,17.7
2019-05-10T07:50:00.000Z,17.8
2019-05-10T07:55:00.000Z,17.8
2019-05-10T08:00:00.000Z,18.3
2019-05-10T08:05:00.000Z,18.6
2019-05-10T08:10:00.000Z,18.9
2019-05-10T08:15:00.000Z,19.3
2019-05-10T08:20:00.000Z,19.4
2019-05-10T08:25:00.000Z,19.5
2019-05-10T08:30:00.000Z,19.8
2019-05-10T08:35:00.000Z,19.9
2019-05-10T08:41:00.000Z,20.2
2019-05-10T08:46:00.000Z,19.9
2019-05-10T08:51:00.000Z,20.0
2019-05-10T08:56:00.000Z,20.5
2019-05-10T09:01:00.000Z,20.1
2019-05-10T09:06:00.000Z,20.1
2019-05-10T09:12:00.000Z,19.8
2019-05-10T09:17:00.000Z,19.5
2019-05-10T09:22:00.000Z,19.5
2019-05-10T09:27:00.000Z,19.7
2019-05-10T09:32:00.000Z,20.1
2019-05-10T09:37:00.000Z,20.4
2019-05-10T09:42:00.000Z,20.3
2019-05-10T09:48:00.000Z,19.8
2019-05-10T09:53:00.000Z,19.7
2019-05-10T09:58:00.000Z,19.6
2019-05-10T10:03:00.000Z,19.7
2019-05-10T10:08:00.000Z,19.8
2019-05-10T10:13:00.000Z,19.7
2019-05-10T10:18:00.000Z,19.7
2019-05-10T10:23:00.000Z,19.4
2019-05-10T10:28:00.000Z,19.3
2019-05-10T10:33:00.000Z,19.1
2019-05-10T10:39:00.000Z,19.8
2019-05-10T10:44:00.000Z,20.2
2019-05-10T10:49:00.000Z,20.2
2019-05-10T10:54:00.000Z,20.5
2019-05-10T10:59:00.000Z,20.6
2019-05-10T11:04:00.000Z,20.7
2019-05-10T11:09:00.000Z,20.5
2019-05-10T11:14:00.000Z,20.1
2019-05-10T11:19:00.000Z,19.9
2019-05-10T11:24:00.000Z,19.9
2019-05-10T11:29:00.000Z,19.9
2019-05-10T11:34:00.000Z,20.0
2019-05-10T11:39:00.000Z,20.0
2019-05-10T11:44:00.000Z,20.2
2019-05-10T11:49:00.000Z,20.2
2019-05-10T11:54:00.000Z,20.1
2019-05-10T11:59:00.000Z,19.8
2019-05-10T12:04:00.000Z,19.9
2019-05-10T12:10:00.000Z,20.2
2019-05-10T12:17:00.000Z,20.4
2019-05-10T12:23:00.000Z,20.7
2019-05-10T12:30:00.000Z,21.1
2019-05-10T12:35:00.000Z,21.3
2019-05-10T12:40:00.000Z,21.3
2019-05-10T12:45:00.000Z,21.1
2019-05-10T12:50:00.000Z,21.1
2019-05-10T12:55:00.000Z,21.1
2019-05-10T13:00:00.000Z,21.2
2019-05-10T13:05:00.000Z,21.2
2019-05-10T13:10:00.000Z,21.4
2019-05-10T13:15:00.000Z,21.4
2019-05-10T13:20:00.000Z,21.3
2019-05-10T13:25:00.000Z,21.5
2019-05-10T13:30:00.000Z,21.4
2019-05-10T13:36:00.000Z,21.2
2019-05-10T13:41:00.000Z,20.6
2019-05-10T13:46:00.000Z,20.6
2019-05-10T13:51:00.000Z,20.5
2019-05-10T13:56:00.000Z,20.0
2019-05-10T14:01:00.000Z,19.9
2019-05-10T14:06:00.000Z,19.9
2019-05-10T14:11:00.000Z,19.9
2019-05-10T14:16:00.000Z,20.0
2019-05-10T14:21:00.000Z,20.2
2019-05-10T14:26:00.000Z,20.1
2019-05-10T14:31:00.000Z,20.1
2019-05-10T14:36:00.000Z,19.9
2019-05-10T14:41:00.000Z,19.9
2019-05-10T14:46:00.000Z,19.8
2019-05-10T14:51:00.000Z,19.8
2019-05-10T14:56:00.000Z,19.9
2019-05-10T15:01:00.000Z,19.9
2019-05-10T15:07:00.000Z,19.9
2019-05-10T15:12:00.000Z,20.0
2019-05-10T15:17:00.000Z,19.9
2019-05-10T15:22:00.000Z,19.7
2019-05-10T15:27:00.000Z,19.6
2019-05-10T15:32:00.000Z,19.4
2019-05-10T15:37:00.000Z,19.3
2019-05-10T15:42:00.000Z,19.5
2019-05-10T15:47:00.000Z,19.4
2019-05-10T15:52:00.000Z,19.1
2019-05-10T15:57:00.000Z,18.8
2019-05-10T16:02:00.000Z,18.7
2019-05-10T16:07:00.000Z,18.6
2019-05-10T16:12:00.000Z,18.5
2019-05-10T16:17:00.000Z,18.4
2019-05-10T16:22:00.000Z,18.3
2019-05-10T16:27:00.000Z,18.2
2019-05-10T16:32:00.000Z,18.1
2019-05-10T16:37:00.000Z,18.0
2019-05-10T16:42:00.000Z,18.0
2019-05-10T16:47:00.000Z,18.0
2019-05-10T16:52:00.000Z,17.9
2019-05-10T16:57:00.000Z,17.8
2019-05-10T17:02:00.000Z,17.7
2019-05-10T17:07:00.000Z,17.7
2019-05-10T17:12:00.000Z,17.7
2019-05-10T17:18:00.000Z,17.5
2019-05-10T17:23:00.000Z,17.4
2019-05-10T17:28:00.000Z,17.2
2019-05-10T17:33:00.000Z,17.1
2019-05-10T17:38:00.000Z,17.0
2019-05-10T17:43:00.000Z,16.9
2019-05-10T17:48:00.000Z,16.7
2019-05-10T17:53:00.000Z,16.6
2019-05-10T17:58:00.000Z,16.5
2019-05-10T18:03:00.000Z,16.4
2019-05-10T18:08:00.000Z,16.4
2019-05-10T18:13:00.000Z,16.3
2019-05-10T18:18:00.000Z,16.2
2019-05-10T18:23:00.000Z,16.1
2019-05-10T18:28:00.000Z,16.0
2019-05-10T18:33:00.000Z,15.9
2019-05-10T18:39:00.000Z,15.8
2019-05-10T18:44:00.000Z,15.8
2019-05-10T18:49:00.000Z,15.7
2019-05-10T18:54:00.000Z,15.6
2019-05-10T18:59:00.000Z,15.5
2019-05-10T19:04:00.000Z,15.5
2019-05-10T19:09:00.000Z,15.4
2019-05-10T19:14:00.000Z,15.4
2019-05-10T19:19:00.000Z,15.3
2019-05-10T19:24:00.000Z,15.3
2019-05-10T19:29:00.000Z,15.2
2019-05-10T19:34:00.000Z,15.1
2019-05-10T19:39:00.000Z,15.1
2019-05-10T19:44:00.000Z,15.0
2019-05-10T19:49:00.000Z,14.9
2019-05-10T19:54:00.000Z,14.8
2019-05-10T19:59:00.000Z,14.7
2019-05-10T20:04:00.000Z,14.7
2019-05-10T20:09:00.000Z,14.6
2019-05-10T20:14:00.000Z,14.5
2019-05-10T20:19:00.000Z,14.5
2019-05-10T20:24:00.000Z,14.4
2019-05-10T20:29:00.000Z,14.4
2019-05-10T20:34:00.000Z,14.4
2019-05-10T20:40:00.000Z,14.3
2019-05-10T20:45:00.000Z,14.3
2019-05-10T20:50:00.000Z,14.2
2019-05-10T20:55:00.000Z,14.2
2019-05-10T21:00:00.000Z,14.1
2019-05-10T21:05:00.000Z,14.1
2019-05-10T21:10:00.000Z,14.0
2019-05-10T21:15:00.000Z,14.0
2019-05-10T21:20:00.000Z,14.0
2019-05-10T21:25:00.000Z,13.9
2019-05-10T21:30:00.000Z,13.9
2019-05-10T21:35:00.000Z,13.9
2019-05-10T21:40:00.000Z,13.9
2019-05-10T21:45:00.000Z,13.8
2019-05-10T21:50:00.000Z,13.8
2019-05-10T21:55:00.000Z,13.8
2019-05-10T22:00:00.000Z,13.7
2019-05-10T22:05:00.000Z,13.7
2019-05-10T22:10:00.000Z,13.7
2019-05-10T22:15:00.000Z,13.6
2019-05-10T22:20:00.000Z,13.6
2019-05-10T22:25:00.000Z,13.6
2019-05-10T22:30:00.000Z,13.5
2019-05-10T22:35:00.000Z,13.5
2019-05-10T22:40:00.000Z,13.4
2019-05-10T22:45:00.000Z,13.4
2019-05-10T22:50:00.000Z,13.3
2019-05-10T22:55:00.000Z,13.3
2019-05-10T23:00:00.000Z,13.3
2019-05-10T23:05:00.000Z,13.3
2019-05-10T23:10:00.000Z,13.2
2019-05-10T23:15:00.000Z,13.2
2019-05-10T23:20:00.000Z,13.2
2019-05-10T23:25:00.000Z,13.2
2019-05-10T23:30:00.000Z,13.1
2019-05-10T23:35:00.000Z,13.0
2019-05-10T23:40:00.000Z,13.0
2019-05-10T23:45:00.000Z,13.0
2019-05-10T23:50:00.000Z,12.9
2019-05-10T23:55:00.000Z,12.9
